SVR547 ULLI-URSS
Flight info
| Callsign | SVR547 |
|---|---|
| Flight time | N/A |
| Altitude | 35000 |
| Route | SUGIN T873 NIRGI DCT OSKAD DCT UPERI DCT OMEZA DCT ABAGI B105 NIMTA DCT SL DCT LIDUS/K0846F370 DCT AST DCT DITEK/K0850F360 DCT GOTIK DCT MEMZA DCT OKOBA DCT VENFO DCT BINOL |
| Aircraft | A320/M-SDE3FGHIRWY/LB1 |
Departure
| Time | 2026-04-30 12:13 |
|---|---|
| Airport | Pulkovo Airport (ULLI) |
Arrival
| Time | N/A |
|---|---|
| Airport | Sochi International Airport (URSS) |
| Time | Latitude | Longitude | Altitude | Speed | Heading |
|---|---|---|---|---|---|
| 2026-04-30 11:51 | 59.80055 | 30.26799 | 80 ft | 0 kts | 107° |
| 2026-04-30 11:59 | 59.80059 | 30.26770 | 85 ft | 4 kts | 106° |
| 2026-04-30 12:00 | 59.80068 | 30.26722 | 83 ft | 4 kts | 132° |
| 2026-04-30 12:00 | 59.80089 | 30.26700 | 84 ft | 4 kts | 189° |
| 2026-04-30 12:00 | 59.80100 | 30.26705 | 84 ft | 1 kts | 196° |
| 2026-04-30 12:04 | 59.80092 | 30.26700 | 84 ft | 0 kts | 197° |
| 2026-04-30 12:04 | 59.80077 | 30.26691 | 84 ft | 6 kts | 197° |
| 2026-04-30 12:04 | 59.80043 | 30.26671 | 82 ft | 4 kts | 196° |
| 2026-04-30 12:04 | 59.80004 | 30.26648 | 86 ft | 6 kts | 197° |
| 2026-04-30 12:05 | 59.79962 | 30.26624 | 82 ft | 7 kts | 196° |
| 2026-04-30 12:05 | 59.79922 | 30.26600 | 85 ft | 5 kts | 197° |
| 2026-04-30 12:05 | 59.79893 | 30.26583 | 82 ft | 8 kts | 196° |
| 2026-04-30 12:05 | 59.79844 | 30.26554 | 86 ft | 7 kts | 197° |
| 2026-04-30 12:06 | 59.79789 | 30.26521 | 82 ft | 9 kts | 197° |
| 2026-04-30 12:06 | 59.79736 | 30.26490 | 84 ft | 7 kts | 197° |
| 2026-04-30 12:06 | 59.79689 | 30.26462 | 82 ft | 7 kts | 197° |
| 2026-04-30 12:06 | 59.79642 | 30.26435 | 83 ft | 6 kts | 196° |
| 2026-04-30 12:07 | 59.79586 | 30.26401 | 83 ft | 8 kts | 197° |
| 2026-04-30 12:07 | 59.79537 | 30.26372 | 83 ft | 6 kts | 196° |
| 2026-04-30 12:07 | 59.79491 | 30.26395 | 83 ft | 9 kts | 125° |
| 2026-04-30 12:07 | 59.79465 | 30.26565 | 86 ft | 18 kts | 106° |
| 2026-04-30 12:08 | 59.79433 | 30.26783 | 85 ft | 15 kts | 107° |
| 2026-04-30 12:08 | 59.79405 | 30.26968 | 86 ft | 13 kts | 106° |
| 2026-04-30 12:08 | 59.79380 | 30.27135 | 88 ft | 12 kts | 107° |
| 2026-04-30 12:08 | 59.79356 | 30.27296 | 87 ft | 18 kts | 106° |
| 2026-04-30 12:09 | 59.79317 | 30.27559 | 85 ft | 19 kts | 107° |
| 2026-04-30 12:09 | 59.79281 | 30.27795 | 87 ft | 17 kts | 106° |
| 2026-04-30 12:09 | 59.79251 | 30.27999 | 90 ft | 14 kts | 107° |
| 2026-04-30 12:09 | 59.79221 | 30.28171 | 88 ft | 11 kts | 117° |
| 2026-04-30 12:10 | 59.79175 | 30.28229 | 87 ft | 6 kts | 167° |
| 2026-04-30 12:10 | 59.79139 | 30.28246 | 88 ft | 5 kts | 167° |
| 2026-04-30 12:10 | 59.79097 | 30.28265 | 87 ft | 8 kts | 166° |
| 2026-04-30 12:10 | 59.79043 | 30.28255 | 91 ft | 6 kts | 226° |
| 2026-04-30 12:11 | 59.79042 | 30.28197 | 88 ft | 0 kts | 285° |
| 2026-04-30 12:11 | 59.79042 | 30.28198 | 88 ft | 0 kts | 285° |
| 2026-04-30 12:11 | 59.79042 | 30.28197 | 88 ft | 0 kts | 285° |
| 2026-04-30 12:12 | 59.79043 | 30.28193 | 87 ft | 3 kts | 285° |
| 2026-04-30 12:12 | 59.79104 | 30.27780 | 85 ft | 67 kts | 286° |
| 2026-04-30 12:12 | 59.79296 | 30.26500 | 86 ft | 125 kts | 286° |
| 2026-04-30 12:13 | 59.79586 | 30.24529 | 101 ft | 169 kts | 288° |
| 2026-04-30 12:13 | 59.79928 | 30.22237 | 620 ft | 174 kts | 288° |
| 2026-04-30 12:13 | 59.80265 | 30.19951 | 1496 ft | 171 kts | 285° |
| 2026-04-30 12:13 | 59.80604 | 30.17646 | 2052 ft | 183 kts | 285° |
| 2026-04-30 12:14 | 59.80984 | 30.15016 | 2253 ft | 211 kts | 285° |
| 2026-04-30 12:14 | 59.81398 | 30.12183 | 2966 ft | 217 kts | 285° |
| 2026-04-30 12:14 | 59.81837 | 30.09245 | 3629 ft | 226 kts | 285° |
| 2026-04-30 12:14 | 59.82298 | 30.06208 | 4357 ft | 233 kts | 286° |
| 2026-04-30 12:15 | 59.82743 | 30.03195 | 5423 ft | 221 kts | 287° |
| 2026-04-30 12:15 | 59.83127 | 30.00182 | 6129 ft | 230 kts | 278° |
| 2026-04-30 12:15 | 59.82842 | 29.97027 | 6768 ft | 243 kts | 242° |
| 2026-04-30 12:15 | 59.81584 | 29.94717 | 7375 ft | 257 kts | 208° |
| 2026-04-30 12:16 | 59.79877 | 29.93530 | 8019 ft | 265 kts | 195° |
| 2026-04-30 12:16 | 59.78051 | 29.92800 | 8699 ft | 270 kts | 188° |
| 2026-04-30 12:16 | 59.76192 | 29.93023 | 9345 ft | 276 kts | 163° |
| 2026-04-30 12:16 | 59.74422 | 29.94528 | 10027 ft | 279 kts | 144° |
| 2026-04-30 12:17 | 59.71913 | 30.00607 | 10576 ft | 305 kts | 103° |
| 2026-04-30 12:17 | 59.71272 | 30.04787 | 10738 ft | 328 kts | 102° |
| 2026-04-30 12:17 | 59.70615 | 30.09265 | 10876 ft | 350 kts | 102° |
| 2026-04-30 12:18 | 59.69931 | 30.14045 | 11023 ft | 370 kts | 99° |
| 2026-04-30 12:18 | 59.69611 | 30.19112 | 11486 ft | 372 kts | 87° |
| 2026-04-30 12:18 | 59.69530 | 30.24257 | 12118 ft | 376 kts | 87° |
| 2026-04-30 12:18 | 59.69441 | 30.29463 | 12780 ft | 379 kts | 87° |
| 2026-04-30 12:19 | 59.69255 | 30.34710 | 13433 ft | 386 kts | 93° |
| 2026-04-30 12:19 | 59.68725 | 30.39967 | 14093 ft | 392 kts | 97° |
| 2026-04-30 12:19 | 59.68159 | 30.45205 | 14685 ft | 395 kts | 96° |
| 2026-04-30 12:19 | 59.67588 | 30.50533 | 15275 ft | 398 kts | 96° |
| 2026-04-30 12:20 | 59.67015 | 30.55913 | 15839 ft | 401 kts | 96° |
| 2026-04-30 12:20 | 59.66439 | 30.61296 | 16396 ft | 403 kts | 96° |
| 2026-04-30 12:20 | 59.65850 | 30.66779 | 16958 ft | 406 kts | 96° |
| 2026-04-30 12:20 | 59.65277 | 30.72270 | 17500 ft | 408 kts | 95° |
| 2026-04-30 12:21 | 59.64777 | 30.77798 | 18027 ft | 410 kts | 93° |
| 2026-04-30 12:21 | 59.64327 | 30.83377 | 18545 ft | 412 kts | 92° |
| 2026-04-30 12:21 | 59.63896 | 30.89013 | 19011 ft | 415 kts | 92° |
| 2026-04-30 12:21 | 59.63463 | 30.94671 | 19464 ft | 417 kts | 92° |
| 2026-04-30 12:22 | 59.63015 | 31.00354 | 19900 ft | 420 kts | 92° |
| 2026-04-30 12:22 | 59.62548 | 31.06071 | 20343 ft | 423 kts | 93° |
| 2026-04-30 12:22 | 59.62065 | 31.11809 | 20763 ft | 425 kts | 93° |
| 2026-04-30 12:22 | 59.61568 | 31.17581 | 21172 ft | 428 kts | 93° |
| 2026-04-30 12:23 | 59.61062 | 31.23378 | 21568 ft | 430 kts | 93° |
| 2026-04-30 12:23 | 59.60559 | 31.29118 | 21939 ft | 432 kts | 93° |
| 2026-04-30 12:23 | 59.60044 | 31.35010 | 22311 ft | 434 kts | 93° |
| 2026-04-30 12:23 | 59.59532 | 31.40900 | 22686 ft | 436 kts | 93° |
| 2026-04-30 12:24 | 59.59011 | 31.46898 | 23043 ft | 439 kts | 93° |
| 2026-04-30 12:24 | 59.58497 | 31.52770 | 23384 ft | 441 kts | 93° |
| 2026-04-30 12:24 | 59.57967 | 31.58747 | 23718 ft | 443 kts | 93° |
| 2026-04-30 12:24 | 59.57430 | 31.64747 | 24005 ft | 445 kts | 93° |
| 2026-04-30 12:25 | 59.56886 | 31.70775 | 24283 ft | 447 kts | 94° |
| 2026-04-30 12:25 | 59.56336 | 31.76826 | 24565 ft | 449 kts | 94° |
| 2026-04-30 12:25 | 59.55785 | 31.82892 | 24829 ft | 450 kts | 94° |
| 2026-04-30 12:25 | 59.55230 | 31.88979 | 25092 ft | 452 kts | 94° |
| 2026-04-30 12:26 | 59.54670 | 31.95078 | 25338 ft | 453 kts | 94° |
| 2026-04-30 12:26 | 59.54042 | 32.01196 | 25586 ft | 459 kts | 98° |
| 2026-04-30 12:26 | 59.52992 | 32.07184 | 25820 ft | 468 kts | 108° |
| 2026-04-30 12:26 | 59.51456 | 32.12914 | 26043 ft | 477 kts | 117° |
| 2026-04-30 12:27 | 59.49464 | 32.18191 | 26279 ft | 485 kts | 126° |
| 2026-04-30 12:27 | 59.47098 | 32.22978 | 26493 ft | 490 kts | 130° |
| 2026-04-30 12:27 | 59.44679 | 32.27703 | 26701 ft | 491 kts | 130° |
| 2026-04-30 12:27 | 59.42251 | 32.32431 | 26943 ft | 491 kts | 130° |
| 2026-04-30 12:28 | 59.39827 | 32.37142 | 27235 ft | 490 kts | 130° |
| 2026-04-30 12:28 | 59.37409 | 32.41835 | 27524 ft | 489 kts | 130° |
| 2026-04-30 12:28 | 59.34998 | 32.46506 | 27814 ft | 489 kts | 130° |
| 2026-04-30 12:28 | 59.32570 | 32.51204 | 28120 ft | 488 kts | 130° |
| 2026-04-30 12:29 | 59.30156 | 32.55861 | 28424 ft | 487 kts | 130° |
| 2026-04-30 12:29 | 59.27775 | 32.60443 | 28721 ft | 486 kts | 130° |
| 2026-04-30 12:29 | 59.25363 | 32.65079 | 29042 ft | 486 kts | 130° |
| 2026-04-30 12:29 | 59.22925 | 32.69752 | 29358 ft | 485 kts | 130° |
| 2026-04-30 12:30 | 59.20541 | 32.74299 | 29670 ft | 484 kts | 130° |
| 2026-04-30 12:30 | 59.18128 | 32.78886 | 29968 ft | 484 kts | 130° |
| 2026-04-30 12:30 | 59.15724 | 32.83461 | 30270 ft | 483 kts | 130° |
| 2026-04-30 12:30 | 59.13316 | 32.88043 | 30515 ft | 483 kts | 130° |
| 2026-04-30 12:31 | 59.10914 | 32.92602 | 30755 ft | 483 kts | 130° |
| 2026-04-30 12:31 | 59.08508 | 32.97155 | 30982 ft | 483 kts | 130° |
| 2026-04-30 12:31 | 59.06098 | 33.01709 | 31222 ft | 483 kts | 130° |
| 2026-04-30 12:31 | 59.03687 | 33.06250 | 31438 ft | 483 kts | 130° |
| 2026-04-30 12:32 | 59.01272 | 33.10786 | 31674 ft | 483 kts | 130° |
| 2026-04-30 12:32 | 58.98861 | 33.15312 | 31909 ft | 483 kts | 130° |
| 2026-04-30 12:32 | 58.96449 | 33.19838 | 32145 ft | 483 kts | 130° |
| 2026-04-30 12:32 | 58.94037 | 33.24363 | 32385 ft | 482 kts | 130° |
| 2026-04-30 12:33 | 58.91624 | 33.28879 | 32628 ft | 482 kts | 131° |
| 2026-04-30 12:33 | 58.89208 | 33.33385 | 32866 ft | 482 kts | 131° |
| 2026-04-30 12:33 | 58.86789 | 33.37880 | 33103 ft | 482 kts | 131° |
| 2026-04-30 12:33 | 58.84370 | 33.42371 | 33342 ft | 482 kts | 131° |
| 2026-04-30 12:34 | 58.81989 | 33.46794 | 33579 ft | 482 kts | 131° |
| 2026-04-30 12:34 | 58.79573 | 33.51263 | 33825 ft | 481 kts | 131° |
| 2026-04-30 12:34 | 58.77154 | 33.55726 | 34070 ft | 481 kts | 131° |
| 2026-04-30 12:34 | 58.74733 | 33.60179 | 34304 ft | 481 kts | 131° |
| 2026-04-30 12:35 | 58.72314 | 33.64610 | 34503 ft | 481 kts | 131° |
| 2026-04-30 12:35 | 58.69890 | 33.69032 | 34703 ft | 480 kts | 132° |
| 2026-04-30 12:35 | 58.67464 | 33.73446 | 34910 ft | 479 kts | 132° |
| 2026-04-30 12:35 | 58.65043 | 33.77850 | 35104 ft | 479 kts | 132° |
| 2026-04-30 12:36 | 58.60190 | 33.86687 | 35207 ft | 482 kts | 132° |
| 2026-04-30 12:36 | 58.55316 | 33.95533 | 35203 ft | 483 kts | 132° |
| 2026-04-30 12:37 | 58.50433 | 34.04342 | 35206 ft | 482 kts | 132° |
| 2026-04-30 12:37 | 58.45547 | 34.13123 | 35210 ft | 482 kts | 132° |
| 2026-04-30 12:38 | 58.40666 | 34.21885 | 35209 ft | 482 kts | 133° |
| 2026-04-30 12:38 | 58.35806 | 34.30557 | 35217 ft | 481 kts | 133° |
| 2026-04-30 12:39 | 58.30911 | 34.39234 | 35220 ft | 481 kts | 133° |
| 2026-04-30 12:39 | 58.26009 | 34.47896 | 35222 ft | 481 kts | 133° |
| 2026-04-30 12:40 | 58.21099 | 34.56519 | 35218 ft | 481 kts | 135° |
| 2026-04-30 12:40 | 58.15663 | 34.64013 | 35223 ft | 484 kts | 142° |
| 2026-04-30 12:41 | 58.10099 | 34.71213 | 35224 ft | 484 kts | 142° |
| 2026-04-30 12:41 | 58.04534 | 34.78389 | 35226 ft | 484 kts | 142° |
| 2026-04-30 12:42 | 57.98968 | 34.85543 | 35226 ft | 484 kts | 142° |
| 2026-04-30 12:42 | 57.93396 | 34.92674 | 35234 ft | 484 kts | 142° |
| 2026-04-30 12:43 | 57.87836 | 34.99783 | 35239 ft | 484 kts | 142° |
| 2026-04-30 12:43 | 57.82265 | 35.06865 | 35243 ft | 483 kts | 142° |
| 2026-04-30 12:44 | 57.76693 | 35.13924 | 35240 ft | 483 kts | 142° |
| 2026-04-30 12:44 | 57.71166 | 35.20905 | 35250 ft | 482 kts | 143° |
| 2026-04-30 12:45 | 57.65604 | 35.27919 | 35247 ft | 482 kts | 143° |
| 2026-04-30 12:45 | 57.60033 | 35.34910 | 35249 ft | 482 kts | 143° |
| 2026-04-30 12:46 | 57.54461 | 35.41863 | 35245 ft | 482 kts | 143° |
| 2026-04-30 12:46 | 57.48926 | 35.48739 | 35244 ft | 481 kts | 143° |
| 2026-04-30 12:47 | 57.43364 | 35.55634 | 35244 ft | 481 kts | 143° |
| 2026-04-30 12:47 | 57.37798 | 35.62511 | 35243 ft | 481 kts | 143° |
| 2026-04-30 12:48 | 57.32218 | 35.69364 | 35244 ft | 481 kts | 143° |
| 2026-04-30 12:48 | 57.26640 | 35.76203 | 35248 ft | 481 kts | 143° |
| 2026-04-30 12:49 | 57.21064 | 35.83023 | 35250 ft | 481 kts | 143° |
| 2026-04-30 12:49 | 57.15478 | 35.89806 | 35247 ft | 481 kts | 144° |
| 2026-04-30 12:50 | 57.09889 | 35.96571 | 35245 ft | 481 kts | 144° |
| 2026-04-30 12:50 | 57.04299 | 36.03324 | 35251 ft | 481 kts | 144° |
| 2026-04-30 12:51 | 56.98706 | 36.10071 | 35248 ft | 481 kts | 144° |
| 2026-04-30 12:51 | 56.93113 | 36.16789 | 35248 ft | 481 kts | 144° |
| 2026-04-30 12:52 | 56.87510 | 36.23484 | 35250 ft | 481 kts | 144° |
| 2026-04-30 12:52 | 56.81898 | 36.30152 | 35251 ft | 480 kts | 144° |
| 2026-04-30 12:53 | 56.76338 | 36.36764 | 35251 ft | 480 kts | 144° |
| 2026-04-30 12:53 | 56.70732 | 36.43423 | 35253 ft | 480 kts | 144° |
| 2026-04-30 12:54 | 56.65135 | 36.50058 | 35251 ft | 480 kts | 144° |
| 2026-04-30 12:54 | 56.59533 | 36.56665 | 35248 ft | 480 kts | 144° |
| 2026-04-30 12:55 | 56.53924 | 36.63248 | 35246 ft | 480 kts | 144° |
| 2026-04-30 12:55 | 56.48316 | 36.69809 | 35246 ft | 480 kts | 145° |
| 2026-04-30 12:56 | 56.42703 | 36.76356 | 35250 ft | 480 kts | 145° |
| 2026-04-30 12:56 | 56.37097 | 36.82890 | 35247 ft | 479 kts | 145° |
| 2026-04-30 12:57 | 56.31503 | 36.89386 | 35248 ft | 479 kts | 145° |
| 2026-04-30 12:57 | 56.25926 | 36.95822 | 35246 ft | 478 kts | 145° |
| 2026-04-30 12:58 | 56.20315 | 37.02258 | 35243 ft | 478 kts | 146° |
| 2026-04-30 12:58 | 56.14706 | 37.08670 | 35238 ft | 478 kts | 146° |
| 2026-04-30 12:59 | 56.09092 | 37.15088 | 35237 ft | 478 kts | 146° |
| 2026-04-30 12:59 | 56.03482 | 37.21474 | 35236 ft | 478 kts | 146° |
| 2026-04-30 13:00 | 55.98817 | 37.26765 | 35239 ft | 478 kts | 146° |
| 2026-04-30 13:00 | 55.93206 | 37.33128 | 35238 ft | 477 kts | 146° |
| 2026-04-30 13:01 | 55.87597 | 37.39446 | 35235 ft | 477 kts | 146° |
| 2026-04-30 13:01 | 55.81989 | 37.45733 | 35230 ft | 476 kts | 146° |
| 2026-04-30 13:02 | 55.76371 | 37.52010 | 35232 ft | 476 kts | 146° |
| 2026-04-30 13:02 | 55.70764 | 37.58268 | 35231 ft | 476 kts | 147° |
| 2026-04-30 13:03 | 55.65146 | 37.64520 | 35237 ft | 476 kts | 147° |
| 2026-04-30 13:03 | 55.59527 | 37.70747 | 35237 ft | 476 kts | 147° |
| 2026-04-30 13:04 | 55.53914 | 37.76948 | 35239 ft | 476 kts | 147° |
| 2026-04-30 13:04 | 55.48328 | 37.83088 | 35228 ft | 476 kts | 147° |
| 2026-04-30 13:05 | 55.42706 | 37.89244 | 35237 ft | 476 kts | 147° |
| 2026-04-30 13:06 | 55.34314 | 37.98519 | 35236 ft | 475 kts | 146° |
| 2026-04-30 13:06 | 55.28770 | 38.04886 | 35240 ft | 475 kts | 146° |
| 2026-04-30 13:07 | 55.23242 | 38.11241 | 35242 ft | 475 kts | 146° |
| 2026-04-30 13:07 | 55.17700 | 38.17539 | 35241 ft | 475 kts | 146° |
| 2026-04-30 13:08 | 55.12150 | 38.23796 | 35234 ft | 474 kts | 147° |
| 2026-04-30 13:08 | 55.06594 | 38.30018 | 35232 ft | 474 kts | 147° |
| 2026-04-30 13:09 | 55.01080 | 38.36192 | 35232 ft | 474 kts | 147° |
| 2026-04-30 13:09 | 54.95527 | 38.42392 | 35227 ft | 474 kts | 147° |
| 2026-04-30 13:10 | 54.89976 | 38.48580 | 35229 ft | 474 kts | 147° |
| 2026-04-30 13:10 | 54.84418 | 38.54739 | 35225 ft | 474 kts | 147° |
| 2026-04-30 13:11 | 54.79013 | 38.61262 | 35220 ft | 472 kts | 137° |
| 2026-04-30 13:11 | 54.74898 | 38.70027 | 35222 ft | 469 kts | 118° |
| 2026-04-30 13:12 | 54.72230 | 38.80299 | 35212 ft | 469 kts | 112° |
| 2026-04-30 13:12 | 54.69664 | 38.90669 | 35212 ft | 469 kts | 112° |
| 2026-04-30 13:13 | 54.65788 | 39.06126 | 35208 ft | 469 kts | 112° |
| 2026-04-30 13:14 | 54.61896 | 39.21653 | 35211 ft | 470 kts | 112° |
| 2026-04-30 13:14 | 54.57975 | 39.37149 | 35207 ft | 470 kts | 113° |
| 2026-04-30 13:15 | 54.54034 | 39.52616 | 35207 ft | 470 kts | 113° |
| 2026-04-30 13:16 | 54.51394 | 39.62932 | 35205 ft | 470 kts | 113° |
| 2026-04-30 13:16 | 54.48745 | 39.73233 | 35198 ft | 471 kts | 113° |
| 2026-04-30 13:17 | 54.44766 | 39.88596 | 35200 ft | 471 kts | 114° |
| 2026-04-30 13:18 | 54.40737 | 40.04018 | 35203 ft | 472 kts | 114° |
| 2026-04-30 13:18 | 54.36700 | 40.19446 | 35204 ft | 473 kts | 114° |
| 2026-04-30 13:19 | 54.33992 | 40.29712 | 35208 ft | 473 kts | 114° |
| 2026-04-30 13:19 | 54.31265 | 40.39971 | 35209 ft | 473 kts | 115° |
| 2026-04-30 13:20 | 54.28538 | 40.50225 | 35206 ft | 473 kts | 115° |
| 2026-04-30 13:20 | 54.25809 | 40.60456 | 35211 ft | 473 kts | 115° |
| 2026-04-30 13:21 | 54.23066 | 40.70671 | 35205 ft | 473 kts | 115° |
| 2026-04-30 13:22 | 54.18927 | 40.85946 | 35204 ft | 472 kts | 115° |
| 2026-04-30 13:22 | 54.14779 | 41.01195 | 35200 ft | 472 kts | 115° |
| 2026-04-30 13:23 | 54.10635 | 41.16363 | 35202 ft | 472 kts | 116° |
| 2026-04-30 13:24 | 54.05049 | 41.36606 | 35192 ft | 472 kts | 116° |
| 2026-04-30 13:25 | 53.99442 | 41.56776 | 35193 ft | 472 kts | 116° |
| 2026-04-30 13:26 | 53.92365 | 41.81927 | 35192 ft | 472 kts | 116° |
| 2026-04-30 13:28 | 53.85255 | 42.06971 | 35193 ft | 471 kts | 117° |
| 2026-04-30 13:28 | 53.80964 | 42.21930 | 35181 ft | 471 kts | 117° |
| 2026-04-30 13:29 | 53.75253 | 42.41746 | 35181 ft | 470 kts | 117° |
| 2026-04-30 13:31 | 53.67204 | 42.65508 | 35168 ft | 464 kts | 137° |
| 2026-04-30 13:31 | 53.59078 | 42.73923 | 35162 ft | 458 kts | 159° |
| 2026-04-30 13:32 | 53.53222 | 42.78139 | 35155 ft | 458 kts | 159° |
| 2026-04-30 13:33 | 53.41542 | 42.86531 | 35155 ft | 458 kts | 159° |
| 2026-04-30 13:34 | 53.32749 | 42.92841 | 35161 ft | 458 kts | 159° |
| 2026-04-30 13:35 | 53.21025 | 43.01182 | 35160 ft | 457 kts | 159° |
| 2026-04-30 13:36 | 53.09337 | 43.09532 | 35159 ft | 457 kts | 158° |
| 2026-04-30 13:36 | 53.00656 | 43.16051 | 35155 ft | 456 kts | 158° |
| 2026-04-30 13:37 | 52.92006 | 43.22496 | 35151 ft | 456 kts | 158° |
| 2026-04-30 13:38 | 52.83304 | 43.28883 | 35153 ft | 456 kts | 158° |
| 2026-04-30 13:39 | 52.71706 | 43.37389 | 35153 ft | 456 kts | 158° |
| 2026-04-30 13:40 | 52.63001 | 43.43731 | 35151 ft | 456 kts | 159° |
| 2026-04-30 13:40 | 52.57199 | 43.47942 | 35151 ft | 456 kts | 159° |
| 2026-04-30 13:41 | 52.51393 | 43.52144 | 35152 ft | 456 kts | 159° |
| 2026-04-30 13:41 | 52.45592 | 43.56334 | 35149 ft | 455 kts | 159° |
| 2026-04-30 13:42 | 52.39793 | 43.60518 | 35150 ft | 455 kts | 159° |
| 2026-04-30 13:42 | 52.31092 | 43.66765 | 35149 ft | 455 kts | 159° |
| 2026-04-30 13:43 | 52.25298 | 43.70900 | 35146 ft | 455 kts | 159° |
| 2026-04-30 13:43 | 52.19503 | 43.75027 | 35144 ft | 454 kts | 159° |
| 2026-04-30 13:44 | 52.13710 | 43.79141 | 35143 ft | 454 kts | 159° |
| 2026-04-30 13:44 | 52.07915 | 43.83250 | 35143 ft | 454 kts | 159° |
| 2026-04-30 13:45 | 51.99251 | 43.89368 | 35145 ft | 455 kts | 159° |
| 2026-04-30 13:46 | 51.93443 | 43.93455 | 35150 ft | 455 kts | 159° |
| 2026-04-30 13:46 | 51.87634 | 43.97522 | 35151 ft | 455 kts | 160° |
| 2026-04-30 13:47 | 51.81823 | 44.01575 | 35155 ft | 455 kts | 160° |
| 2026-04-30 13:47 | 51.76012 | 44.05628 | 35152 ft | 455 kts | 159° |
| 2026-04-30 13:48 | 51.70196 | 44.09691 | 35157 ft | 455 kts | 160° |
| 2026-04-30 13:48 | 51.64381 | 44.13738 | 35159 ft | 455 kts | 160° |
| 2026-04-30 13:49 | 51.58561 | 44.17762 | 35157 ft | 455 kts | 160° |
| 2026-04-30 13:49 | 51.52739 | 44.21780 | 35157 ft | 455 kts | 160° |
| 2026-04-30 13:50 | 51.46950 | 44.25766 | 35153 ft | 456 kts | 160° |
| 2026-04-30 13:50 | 51.38204 | 44.31773 | 35161 ft | 456 kts | 160° |
| 2026-04-30 13:51 | 51.32368 | 44.35766 | 35168 ft | 456 kts | 160° |
| 2026-04-30 13:51 | 51.26521 | 44.39737 | 35171 ft | 456 kts | 160° |
| 2026-04-30 13:52 | 51.20676 | 44.43695 | 35168 ft | 456 kts | 160° |
| 2026-04-30 13:52 | 51.14763 | 44.47263 | 35168 ft | 451 kts | 170° |
| 2026-04-30 13:53 | 51.09664 | 44.48910 | 35168 ft | 450 kts | 172° |
| 2026-04-30 13:53 | 51.03484 | 44.50865 | 35168 ft | 450 kts | 172° |
| 2026-04-30 13:54 | 50.97350 | 44.52805 | 35166 ft | 450 kts | 172° |
| 2026-04-30 13:54 | 50.91252 | 44.54724 | 35165 ft | 449 kts | 173° |
| 2026-04-30 13:55 | 50.85122 | 44.56642 | 35163 ft | 449 kts | 173° |
| 2026-04-30 13:55 | 50.78989 | 44.58552 | 35161 ft | 449 kts | 173° |
| 2026-04-30 13:56 | 50.72866 | 44.60464 | 35162 ft | 448 kts | 173° |
| 2026-04-30 13:56 | 50.66749 | 44.62375 | 35161 ft | 448 kts | 173° |
| 2026-04-30 13:57 | 50.60630 | 44.64270 | 35157 ft | 448 kts | 173° |
| 2026-04-30 13:57 | 50.54518 | 44.66162 | 35151 ft | 447 kts | 173° |
| 2026-04-30 13:58 | 50.45397 | 44.68984 | 35150 ft | 447 kts | 173° |
| 2026-04-30 13:59 | 50.39298 | 44.70858 | 35148 ft | 447 kts | 173° |
| 2026-04-30 13:59 | 50.33194 | 44.72751 | 35147 ft | 447 kts | 173° |
| 2026-04-30 14:00 | 50.27095 | 44.74625 | 35149 ft | 447 kts | 173° |
| 2026-04-30 14:00 | 50.17944 | 44.77394 | 35152 ft | 446 kts | 174° |
| 2026-04-30 14:01 | 50.11846 | 44.79244 | 35152 ft | 446 kts | 174° |
| 2026-04-30 14:01 | 50.05756 | 44.81102 | 35153 ft | 446 kts | 174° |
| 2026-04-30 14:02 | 49.99701 | 44.82946 | 35153 ft | 446 kts | 174° |
| 2026-04-30 14:02 | 49.93610 | 44.84792 | 35156 ft | 446 kts | 174° |
| 2026-04-30 14:03 | 49.87519 | 44.86618 | 35162 ft | 446 kts | 174° |
| 2026-04-30 14:03 | 49.81425 | 44.88436 | 35158 ft | 446 kts | 174° |
| 2026-04-30 14:04 | 49.75332 | 44.90270 | 35158 ft | 446 kts | 174° |
| 2026-04-30 14:04 | 49.69251 | 44.92088 | 35151 ft | 445 kts | 174° |
| 2026-04-30 14:05 | 49.63165 | 44.93897 | 35153 ft | 445 kts | 175° |
| 2026-04-30 14:05 | 49.57084 | 44.95702 | 35153 ft | 445 kts | 174° |
| 2026-04-30 14:06 | 49.48001 | 44.98402 | 35147 ft | 445 kts | 175° |
| 2026-04-30 14:07 | 49.38881 | 45.01097 | 35142 ft | 445 kts | 175° |
| 2026-04-30 14:08 | 49.29758 | 45.03773 | 35136 ft | 445 kts | 175° |
| 2026-04-30 14:08 | 49.20625 | 45.06457 | 35132 ft | 446 kts | 175° |
| 2026-04-30 14:09 | 49.14565 | 45.08231 | 35128 ft | 446 kts | 175° |
| 2026-04-30 14:10 | 49.05414 | 45.10891 | 35130 ft | 447 kts | 175° |
| 2026-04-30 14:10 | 48.99307 | 45.12657 | 35130 ft | 447 kts | 175° |
| 2026-04-30 14:11 | 48.93193 | 45.14424 | 35126 ft | 447 kts | 175° |
| 2026-04-30 14:11 | 48.87078 | 45.16194 | 35128 ft | 448 kts | 175° |
| 2026-04-30 14:12 | 48.80956 | 45.17957 | 35127 ft | 448 kts | 175° |
| 2026-04-30 14:12 | 48.74828 | 45.19724 | 35128 ft | 448 kts | 175° |
| 2026-04-30 14:13 | 48.68694 | 45.21482 | 35117 ft | 449 kts | 175° |
| 2026-04-30 14:13 | 48.62553 | 45.23234 | 35108 ft | 449 kts | 175° |
| 2026-04-30 14:14 | 48.56454 | 45.24981 | 35111 ft | 449 kts | 175° |
| 2026-04-30 14:14 | 48.50310 | 45.26728 | 35114 ft | 449 kts | 176° |
| 2026-04-30 14:15 | 48.44162 | 45.28471 | 35126 ft | 450 kts | 176° |
| 2026-04-30 14:15 | 48.38108 | 45.31120 | 35123 ft | 463 kts | 161° |
| 2026-04-30 14:16 | 48.32320 | 45.35411 | 35125 ft | 464 kts | 160° |
| 2026-04-30 14:16 | 48.26530 | 45.39684 | 35119 ft | 463 kts | 160° |
| 2026-04-30 14:17 | 48.20733 | 45.43928 | 35121 ft | 463 kts | 160° |
| 2026-04-30 14:17 | 48.14941 | 45.48157 | 35121 ft | 463 kts | 160° |
| 2026-04-30 14:18 | 48.09143 | 45.52373 | 35121 ft | 463 kts | 160° |
| 2026-04-30 14:18 | 48.00447 | 45.58698 | 35121 ft | 463 kts | 160° |
| 2026-04-30 14:19 | 47.91798 | 45.64972 | 35119 ft | 462 kts | 160° |
| 2026-04-30 14:20 | 47.86012 | 45.69153 | 35112 ft | 462 kts | 160° |
| 2026-04-30 14:20 | 47.77330 | 45.75398 | 35112 ft | 462 kts | 160° |
| 2026-04-30 14:21 | 47.71538 | 45.79546 | 35111 ft | 462 kts | 160° |
| 2026-04-30 14:22 | 47.62834 | 45.85766 | 35110 ft | 462 kts | 160° |
| 2026-04-30 14:22 | 47.54144 | 45.91963 | 35110 ft | 462 kts | 160° |
| 2026-04-30 14:23 | 47.42591 | 46.00172 | 35109 ft | 462 kts | 160° |
| 2026-04-30 14:24 | 47.33893 | 46.06304 | 35104 ft | 462 kts | 161° |
| 2026-04-30 14:25 | 47.22295 | 46.14475 | 35096 ft | 462 kts | 161° |
| 2026-04-30 14:26 | 47.13582 | 46.20562 | 35090 ft | 462 kts | 161° |
| 2026-04-30 14:27 | 47.05215 | 46.27764 | 35081 ft | 478 kts | 143° |
| 2026-04-30 14:27 | 47.02942 | 46.31379 | 35082 ft | 486 kts | 132° |
| 2026-04-30 14:27 | 47.01051 | 46.35529 | 35079 ft | 491 kts | 127° |
| 2026-04-30 14:28 | 46.95602 | 46.48262 | 35079 ft | 492 kts | 127° |
| 2026-04-30 14:28 | 46.91969 | 46.56682 | 35083 ft | 493 kts | 127° |
| 2026-04-30 14:29 | 46.85234 | 46.72260 | 35089 ft | 493 kts | 127° |
| 2026-04-30 14:30 | 46.79133 | 46.86321 | 35414 ft | 492 kts | 127° |
| 2026-04-30 14:31 | 46.75461 | 46.94743 | 35780 ft | 491 kts | 127° |
| 2026-04-30 14:31 | 46.71782 | 47.03131 | 36124 ft | 490 kts | 127° |
| 2026-04-30 14:31 | 46.69941 | 47.07317 | 36296 ft | 490 kts | 127° |
| 2026-04-30 14:32 | 46.66262 | 47.15674 | 36604 ft | 490 kts | 127° |
| 2026-04-30 14:32 | 46.64425 | 47.19840 | 36752 ft | 489 kts | 127° |
| 2026-04-30 14:32 | 46.62587 | 47.24009 | 36901 ft | 489 kts | 128° |
| 2026-04-30 14:33 | 46.60750 | 47.28163 | 37064 ft | 489 kts | 128° |
| 2026-04-30 14:33 | 46.55245 | 47.40555 | 37104 ft | 488 kts | 128° |
| 2026-04-30 14:34 | 46.51554 | 47.48850 | 37106 ft | 488 kts | 128° |
| 2026-04-30 14:34 | 46.47861 | 47.57132 | 37104 ft | 488 kts | 128° |
| 2026-04-30 14:35 | 46.42319 | 47.69513 | 37111 ft | 488 kts | 128° |
| 2026-04-30 14:36 | 46.38606 | 47.77748 | 37104 ft | 488 kts | 128° |
| 2026-04-30 14:36 | 46.34893 | 47.85966 | 37097 ft | 488 kts | 128° |
| 2026-04-30 14:37 | 46.30906 | 47.93732 | 37109 ft | 478 kts | 141° |
| 2026-04-30 14:37 | 46.28377 | 47.96803 | 37101 ft | 470 kts | 152° |
| 2026-04-30 14:37 | 46.25566 | 47.99115 | 37098 ft | 460 kts | 162° |
| 2026-04-30 14:38 | 46.19520 | 48.01411 | 37094 ft | 444 kts | 181° |
| 2026-04-30 14:38 | 46.13373 | 48.01819 | 37092 ft | 443 kts | 183° |
| 2026-04-30 14:39 | 46.07212 | 48.02200 | 37092 ft | 443 kts | 183° |
| 2026-04-30 14:39 | 46.01043 | 48.02576 | 37092 ft | 444 kts | 183° |
| 2026-04-30 14:40 | 45.91782 | 48.03141 | 37094 ft | 444 kts | 184° |
| 2026-04-30 14:40 | 45.85641 | 48.03506 | 37099 ft | 445 kts | 184° |
| 2026-04-30 14:41 | 45.79440 | 48.03880 | 37112 ft | 446 kts | 184° |
| 2026-04-30 14:41 | 45.73235 | 48.04261 | 37116 ft | 446 kts | 184° |
| 2026-04-30 14:42 | 45.67026 | 48.04631 | 37117 ft | 446 kts | 184° |
| 2026-04-30 14:42 | 45.60824 | 48.05000 | 37121 ft | 446 kts | 184° |
| 2026-04-30 14:43 | 45.54612 | 48.05376 | 37122 ft | 446 kts | 184° |
| 2026-04-30 14:43 | 45.48449 | 48.05748 | 37127 ft | 447 kts | 184° |
| 2026-04-30 14:44 | 45.42232 | 48.06122 | 37126 ft | 447 kts | 184° |
| 2026-04-30 14:44 | 45.36008 | 48.06488 | 37132 ft | 448 kts | 184° |
| 2026-04-30 14:45 | 45.29778 | 48.06861 | 37134 ft | 448 kts | 184° |
| 2026-04-30 14:45 | 45.23548 | 48.07233 | 37133 ft | 448 kts | 184° |
| 2026-04-30 14:46 | 45.17316 | 48.07607 | 37135 ft | 448 kts | 184° |
| 2026-04-30 14:46 | 45.12135 | 48.07911 | 37135 ft | 448 kts | 184° |
| 2026-04-30 14:47 | 45.05899 | 48.08273 | 37139 ft | 449 kts | 184° |
| 2026-04-30 14:47 | 44.98639 | 48.08696 | 37139 ft | 449 kts | 184° |
| 2026-04-30 14:48 | 44.92404 | 48.09070 | 37153 ft | 449 kts | 184° |
| 2026-04-30 14:48 | 44.87177 | 48.09364 | 37137 ft | 448 kts | 184° |
| 2026-04-30 14:49 | 44.80980 | 48.09721 | 37141 ft | 448 kts | 184° |
| 2026-04-30 14:49 | 44.74744 | 48.10092 | 37129 ft | 449 kts | 184° |
| 2026-04-30 14:50 | 44.65379 | 48.10629 | 37132 ft | 449 kts | 184° |
| 2026-04-30 14:51 | 44.56019 | 48.11166 | 37135 ft | 449 kts | 184° |
| 2026-04-30 14:52 | 44.46652 | 48.11710 | 37133 ft | 449 kts | 184° |
| 2026-04-30 14:52 | 44.40501 | 48.11301 | 37134 ft | 435 kts | 200° |
| 2026-04-30 14:52 | 44.37676 | 48.09919 | 37135 ft | 426 kts | 212° |
| 2026-04-30 14:53 | 44.33086 | 48.05040 | 37134 ft | 411 kts | 233° |
| 2026-04-30 14:53 | 44.31456 | 48.01855 | 37132 ft | 407 kts | 243° |
| 2026-04-30 14:54 | 44.25911 | 47.88099 | 37137 ft | 407 kts | 243° |
| 2026-04-30 14:55 | 44.21716 | 47.77803 | 37144 ft | 407 kts | 243° |
| 2026-04-30 14:56 | 44.16142 | 47.64098 | 37146 ft | 406 kts | 243° |
| 2026-04-30 14:57 | 44.11963 | 47.53846 | 37152 ft | 406 kts | 243° |
| 2026-04-30 14:58 | 44.06365 | 47.40224 | 37152 ft | 405 kts | 243° |
| 2026-04-30 14:58 | 44.02184 | 47.30075 | 37154 ft | 405 kts | 243° |
| 2026-04-30 15:00 | 43.95165 | 47.13129 | 37151 ft | 405 kts | 243° |
| 2026-04-30 15:01 | 43.89530 | 46.99597 | 37150 ft | 405 kts | 243° |
| 2026-04-30 15:01 | 43.85302 | 46.89471 | 37153 ft | 405 kts | 242° |
| 2026-04-30 15:02 | 43.82475 | 46.82732 | 37145 ft | 404 kts | 242° |
| 2026-04-30 15:03 | 43.75415 | 46.65968 | 37146 ft | 404 kts | 242° |
| 2026-04-30 15:04 | 43.68303 | 46.49186 | 37129 ft | 405 kts | 242° |
| 2026-04-30 15:06 | 43.61169 | 46.32421 | 37131 ft | 405 kts | 242° |
| 2026-04-30 15:07 | 43.55431 | 46.19030 | 37127 ft | 405 kts | 242° |
| 2026-04-30 15:08 | 43.50085 | 46.05465 | 37116 ft | 402 kts | 255° |
| 2026-04-30 15:08 | 43.49817 | 45.94018 | 37119 ft | 403 kts | 275° |
| 2026-04-30 15:09 | 43.50459 | 45.86341 | 37115 ft | 404 kts | 275° |
| 2026-04-30 15:10 | 43.51704 | 45.70960 | 37127 ft | 404 kts | 275° |
| 2026-04-30 15:11 | 43.53554 | 45.47949 | 37137 ft | 404 kts | 275° |
| 2026-04-30 15:13 | 43.55061 | 45.28731 | 37148 ft | 403 kts | 274° |
| 2026-04-30 15:14 | 43.57105 | 45.01859 | 37146 ft | 402 kts | 274° |
| 2026-04-30 15:17 | 43.59642 | 44.67436 | 37141 ft | 401 kts | 274° |
| 2026-04-30 15:19 | 43.61801 | 44.36826 | 37132 ft | 401 kts | 274° |